Mountain Ash, United Kingdom
Current Conditions -  °F | °C
As of 6:50 AM on Friday 28 Nov 2014 (Local Time) from EGFF Reporting Station
Overcast Overcast  
Wind Chill: 50°   Ceiling: 900
Heat Index: 50°   Visibility: 5mi
Dew Point: 48°   Wind: 14mph
Humidity: 94%   Direction: 80°E
Pressure: 29.5"   Gusts: NA
Location:  51.68°N, 3.38°W
Report Text: EGFF 280650Z AUTO 08012KT 8000 OVC009 10/09 Q0999
Loading
Personal Weather Stations






























Interactive Weather Map New forecast layout! Learn more

10-Day Weather Forecast

Advertisements
Track Severe Weather on mobile